Time;durP1;ratioP1;P1;durP2;ratioP2;P2;SDS_P1;SDS_P2;PMS_P1;PMS_P2;Temp;Humidity;BMP_temperature;BMP_pressure;BME280_temperature;BME280_humidity;BME280_pressure;Samples;Min_cycle;Max_cycle;Signal;HPM_P1;HPM_P2
2022/11/15 00:00:58;;;;;;;3.47;3.17;;;;;;;;;;5055660;28;20225;-78
2022/11/15 00:03:28;;;;;;;2.92;2.72;;;;;;;;;;5056327;28;20281;-79
2022/11/15 00:05:56;;;;;;;3.88;3.40;;;;;;;;;;5056130;28;20296;-78
2022/11/15 00:08:23;;;;;;;2.72;2.45;;;;;;;;;;5056014;28;20307;-78
2022/11/15 00:10:57;;;;;;;2.83;2.63;;;;;;;;;;5053893;28;20208;-79
2022/11/15 00:13:25;;;;;;;2.92;2.70;;;;;;;;;;5035919;28;20289;-78
2022/11/15 00:15:54;;;;;;;4.30;3.40;;;;;;;;;;5035748;28;20305;-77
2022/11/15 00:18:21;;;;;;;5.25;3.03;;;;;;;;;;5034591;28;20233;-79
2022/11/15 00:20:48;;;;;;;2.40;2.20;;;;;;;;;;5035624;28;20313;-79
2022/11/15 00:23:16;;;;;;;3.40;2.97;;;;;;;;;;5034794;28;20766;-79
2022/11/15 00:25:43;;;;;;;4.03;2.78;;;;;;;;;;5035866;28;20284;-79
2022/11/15 00:28:11;;;;;;;3.03;2.78;;;;;;;;;;5035378;28;20336;-80
2022/11/15 00:30:40;;;;;;;3.28;3.00;;;;;;;;;;5035092;28;20198;-80
2022/11/15 00:33:09;;;;;;;3.20;2.85;;;;;;;;;;5034730;28;20288;-78
2022/11/15 00:35:37;;;;;;;4.47;2.85;;;;;;;;;;5035512;28;20206;-78
2022/11/15 00:38:04;;;;;;;3.42;3.13;;;;;;;;;;5034975;28;20750;-79
2022/11/15 00:40:32;;;;;;;3.75;3.13;;;;;;;;;;5035857;28;20313;-80
2022/11/15 00:43:00;;;;;;;3.63;2.60;;;;;;;;;;5054367;28;20209;-78
2022/11/15 00:45:27;;;;;;;3.75;3.35;;;;;;;;;;5055322;28;20208;-79
2022/11/15 00:47:56;;;;;;;3.20;2.90;;;;;;;;;;5054815;28;20292;-78
2022/11/15 00:50:24;;;;;;;4.28;2.72;;;;;;;;;;5054494;28;20194;-80
2022/11/15 00:52:51;;;;;;;4.15;2.80;;;;;;;;;;5055022;28;20292;-78
2022/11/15 00:55:19;;;;;;;3.33;3.03;;;;;;;;;;5055012;28;20575;-79
2022/11/15 00:57:47;;;;;;;2.50;2.30;;;;;;;;;;5055117;28;20327;-78
2022/11/15 01:00:16;;;;;;;4.32;3.13;;;;;;;;;;5054843;28;20225;-79
2022/11/15 01:02:43;;;;;;;2.65;2.45;;;;;;;;;;5055092;28;20292;-79
2022/11/15 01:05:12;;;;;;;3.28;2.97;;;;;;;;;;5055246;28;20297;-79
2022/11/15 01:07:39;;;;;;;2.95;2.65;;;;;;;;;;5054544;28;20208;-78
2022/11/15 01:10:08;;;;;;;4.20;2.97;;;;;;;;;;5054320;28;20335;-80
2022/11/15 01:12:36;;;;;;;2.28;2.13;;;;;;;;;;5037955;28;20210;-79
2022/11/15 01:15:03;;;;;;;2.83;2.50;;;;;;;;;;5034425;28;20741;-79
2022/11/15 01:17:32;;;;;;;3.45;2.70;;;;;;;;;;5034087;28;20762;-79
2022/11/15 01:19:59;;;;;;;3.10;2.78;;;;;;;;;;5034183;28;20317;-79
2022/11/15 01:22:28;;;;;;;2.53;2.33;;;;;;;;;;5034518;28;20202;-80
2022/11/15 01:24:55;;;;;;;2.53;2.33;;;;;;;;;;5034051;28;20297;-79
2022/11/15 01:27:23;;;;;;;2.60;2.40;;;;;;;;;;5034969;28;20678;-78
2022/11/15 01:29:50;;;;;;;3.10;2.45;;;;;;;;;;5034880;28;20313;-79
2022/11/15 01:32:18;;;;;;;2.65;2.38;;;;;;;;;;5034345;28;20613;-78
2022/11/15 01:34:46;;;;;;;2.30;2.10;;;;;;;;;;5034272;28;20198;-78
2022/11/15 01:37:13;;;;;;;3.30;2.42;;;;;;;;;;5034560;28;20237;-79
2022/11/15 01:39:42;;;;;;;2.97;2.75;;;;;;;;;;5067521;23;20302;-85
2022/11/15 01:42:14;;;;;;;2.05;1.95;;;;;;;;;;5041596;28;20312;-85
2022/11/15 01:44:45;;;;;;;2.80;2.60;;;;;;;;;;5034766;28;20194;-85
2022/11/15 01:47:17;;;;;;;2.50;2.30;;;;;;;;;;5034912;28;20222;-85
2022/11/15 01:49:56;;;;;;;4.97;2.75;;;;;;;;;;5035046;28;20300;-86
2022/11/15 01:52:36;;;;;;;4.55;2.58;;;;;;;;;;5034356;28;20179;-86
2022/11/15 01:55:15;;;;;;;2.65;2.33;;;;;;;;;;5034755;28;20285;-85
2022/11/15 01:57:45;;;;;;;5.15;2.65;;;;;;;;;;5035285;28;20202;-85
2022/11/15 02:00:16;;;;;;;2.75;2.55;;;;;;;;;;5034476;28;20246;-84
2022/11/15 02:02:47;;;;;;;2.80;2.47;;;;;;;;;;5034848;28;20224;-84
2022/11/15 02:05:21;;;;;;;3.10;2.58;;;;;;;;;;5034771;28;20191;-85
2022/11/15 02:07:49;;;;;;;2.38;2.17;;;;;;;;;;5034758;28;20190;-83
2022/11/15 02:10:22;;;;;;;3.45;2.58;;;;;;;;;;5034458;28;20315;-85
2022/11/15 02:12:50;;;;;;;2.33;2.13;;;;;;;;;;5035208;28;20288;-85
2022/11/15 02:15:17;;;;;;;2.83;2.03;;;;;;;;;;5034987;28;20209;-84
2022/11/15 02:18:01;;;;;;;1.85;1.75;;;;;;;;;;5034563;28;20295;-85
2022/11/15 02:20:45;;;;;;;3.03;2.25;;;;;;;;;;5035186;28;20720;-85
2022/11/15 02:23:56;;;;;;;2.10;1.90;;;;;;;;;;5037486;28;20649;-85
2022/11/15 02:26:56;;;;;;;2.35;2.15;;;;;;;;;;5029930;28;20248;-85
2022/11/15 02:29:37;;;;;;;3.95;2.33;;;;;;;;;;5038792;28;20186;-84
2022/11/15 02:32:11;;;;;;;2.22;2.03;;;;;;;;;;5038846;28;20183;-84
2022/11/15 02:34:47;;;;;;;3.17;2.42;;;;;;;;;;5038853;28;20187;-85
2022/11/15 02:37:21;;;;;;;2.40;2.15;;;;;;;;;;5038499;28;20285;-85
2022/11/15 02:39:52;;;;;;;3.15;2.85;;;;;;;;;;5037783;28;20727;-85
2022/11/15 02:45:10;;;;;;;2.42;2.22;;;;;;;;;;5019069;28;20190;-84
2022/11/15 02:47:44;;;;;;;2.30;2.10;;;;;;;;;;5019645;28;20235;-85
2022/11/15 02:50:14;;;;;;;1.80;1.70;;;;;;;;;;5018441;28;20253;-84
2022/11/15 02:52:42;;;;;;;2.40;2.20;;;;;;;;;;5018715;28;20252;-83
2022/11/15 02:55:29;;;;;;;2.55;1.88;;;;;;;;;;5018268;28;20807;-84
2022/11/15 02:58:23;;;;;;;2.55;2.35;;;;;;;;;;5018770;28;20266;-83
2022/11/15 03:01:01;;;;;;;2.63;2.30;;;;;;;;;;5018307;28;20313;-84
2022/11/15 03:03:43;;;;;;;2.88;2.58;;;;;;;;;;5018682;28;20195;-85
2022/11/15 03:06:21;;;;;;;2.10;2.00;;;;;;;;;;5018632;28;20245;-84
2022/11/15 03:08:59;;;;;;;4.65;3.35;;;;;;;;;;5017934;28;20550;-85
2022/11/15 03:11:26;;;;;;;1.73;1.63;;;;;;;;;;5025307;28;20275;-85
2022/11/15 03:13:59;;;;;;;3.47;2.70;;;;;;;;;;5037893;28;20276;-85
2022/11/15 03:16:31;;;;;;;2.60;2.40;;;;;;;;;;5037485;28;20310;-84
2022/11/15 03:19:04;;;;;;;2.92;2.17;;;;;;;;;;5037471;28;20193;-85
2022/11/15 03:21:33;;;;;;;2.50;2.38;;;;;;;;;;5037317;28;20269;-85
2022/11/15 03:24:05;;;;;;;3.78;2.70;;;;;;;;;;5037782;28;20293;-84
2022/11/15 03:26:35;;;;;;;3.78;2.35;;;;;;;;;;5038158;28;20298;-84
2022/11/15 03:29:07;;;;;;;2.22;2.13;;;;;;;;;;5037665;28;20710;-84
2022/11/15 03:31:49;;;;;;;2.10;1.75;;;;;;;;;;5037913;28;20310;-83
2022/11/15 03:34:26;;;;;;;2.33;1.95;;;;;;;;;;5037768;28;20190;-84
2022/11/15 03:36:54;;;;;;;2.78;2.58;;;;;;;;;;5037811;28;20186;-84
2022/11/15 03:39:22;;;;;;;3.05;2.28;;;;;;;;;;5037731;28;20717;-85
2022/11/15 03:41:54;;;;;;;1.80;1.70;;;;;;;;;;5037877;28;20320;-83
2022/11/15 03:44:36;;;;;;;1.67;1.58;;;;;;;;;;5037929;28;20712;-83
2022/11/15 03:47:07;;;;;;;1.98;1.88;;;;;;;;;;5037362;28;20201;-84
2022/11/15 03:49:39;;;;;;;1.63;1.52;;;;;;;;;;5037100;28;20229;-84
2022/11/15 03:52:07;;;;;;;3.70;2.67;;;;;;;;;;5037509;28;20274;-84
2022/11/15 03:54:35;;;;;;;3.42;2.00;;;;;;;;;;5036247;28;20368;-84
2022/11/15 03:57:02;;;;;;;2.42;1.92;;;;;;;;;;5036681;28;20679;-84
2022/11/15 03:59:30;;;;;;;2.50;2.30;;;;;;;;;;5036846;28;20287;-83
2022/11/15 04:01:57;;;;;;;2.72;2.50;;;;;;;;;;5037100;28;20233;-83
2022/11/15 04:04:25;;;;;;;3.22;1.98;;;;;;;;;;5037061;28;20234;-84
2022/11/15 04:06:54;;;;;;;2.15;2.03;;;;;;;;;;5037183;28;20341;-84
2022/11/15 04:09:21;;;;;;;2.03;1.92;;;;;;;;;;5036901;28;20289;-84
2022/11/15 04:14:25;;;;;;;1.65;1.55;;;;;;;;;;5015678;28;20210;-84
2022/11/15 04:16:52;;;;;;;1.90;1.80;;;;;;;;;;5017118;28;20199;-84
2022/11/15 04:24:52;;;;;;;2.40;2.20;;;;;;;;;;5016456;28;20187;-83
2022/11/15 04:27:20;;;;;;;2.72;2.50;;;;;;;;;;5016386;28;20293;-83
2022/11/15 04:29:47;;;;;;;2.47;2.28;;;;;;;;;;5016159;28;20289;-83
2022/11/15 04:32:15;;;;;;;3.92;2.60;;;;;;;;;;5016198;28;20238;-84
2022/11/15 04:34:43;;;;;;;3.80;2.50;;;;;;;;;;5016172;28;20294;-84
2022/11/15 04:37:13;;;;;;;4.20;2.55;;;;;;;;;;5015785;28;20330;-85
2022/11/15 04:39:41;;;;;;;4.38;2.88;;;;;;;;;;5016008;28;20265;-85
2022/11/15 04:42:09;;;;;;;3.10;2.67;;;;;;;;;;5028208;28;20230;-84
2022/11/15 04:44:37;;;;;;;4.63;3.33;;;;;;;;;;5035446;28;20229;-85
2022/11/15 04:47:05;;;;;;;4.50;2.97;;;;;;;;;;5035691;28;20285;-85
2022/11/15 04:49:33;;;;;;;2.90;2.60;;;;;;;;;;5035195;28;20225;-85
2022/11/15 04:52:01;;;;;;;2.72;2.53;;;;;;;;;;5034572;28;20199;-85
2022/11/15 04:54:29;;;;;;;2.97;2.78;;;;;;;;;;5035379;28;20294;-85
2022/11/15 04:56:57;;;;;;;3.95;2.75;;;;;;;;;;5035302;28;20412;-84
2022/11/15 04:59:24;;;;;;;2.58;2.38;;;;;;;;;;5034867;28;20293;-85
2022/11/15 05:01:54;;;;;;;2.97;2.67;;;;;;;;;;5034945;28;20256;-84
2022/11/15 05:04:20;;;;;;;2.65;2.38;;;;;;;;;;5034919;28;20307;-85
2022/11/15 05:06:50;;;;;;;3.63;2.85;;;;;;;;;;5035510;28;20285;-85
2022/11/15 05:09:18;;;;;;;3.38;2.42;;;;;;;;;;5035167;28;20202;-84
2022/11/15 05:11:47;;;;;;;2.10;1.95;;;;;;;;;;5034420;28;20312;-84
2022/11/15 05:14:15;;;;;;;4.22;2.92;;;;;;;;;;5034716;28;20198;-84
2022/11/15 05:16:43;;;;;;;4.18;2.05;;;;;;;;;;5034881;28;20289;-84
2022/11/15 05:19:10;;;;;;;3.42;3.13;;;;;;;;;;5034678;28;20221;-83
2022/11/15 05:21:39;;;;;;;3.00;2.40;;;;;;;;;;5035274;28;20652;-82
2022/11/15 05:24:07;;;;;;;2.50;2.30;;;;;;;;;;5034810;28;20253;-82
2022/11/15 05:26:34;;;;;;;4.43;2.80;;;;;;;;;;5034702;28;20617;-83
2022/11/15 05:29:03;;;;;;;2.60;2.40;;;;;;;;;;5034967;28;20770;-84
2022/11/15 05:31:31;;;;;;;2.83;2.63;;;;;;;;;;5034410;28;20332;-83
2022/11/15 05:34:00;;;;;;;2.63;2.42;;;;;;;;;;5034817;28;20624;-83
2022/11/15 05:36:32;;;;;;;2.40;2.10;;;;;;;;;;5034418;28;20570;-83
2022/11/15 05:39:00;;;;;;;2.60;2.40;;;;;;;;;;5034273;28;20293;-83
2022/11/15 05:41:33;;;;;;;2.88;2.13;;;;;;;;;;5033798;28;20328;-83
2022/11/15 05:44:03;;;;;;;2.47;2.25;;;;;;;;;;5034457;28;20301;-83
2022/11/15 05:46:31;;;;;;;2.92;2.72;;;;;;;;;;5034318;28;20270;-84
2022/11/15 05:48:58;;;;;;;2.25;2.05;;;;;;;;;;5034375;28;20652;-84
2022/11/15 05:51:26;;;;;;;2.65;2.45;;;;;;;;;;5034305;28;20273;-84
2022/11/15 05:53:55;;;;;;;2.22;1.92;;;;;;;;;;5034121;28;20293;-84
2022/11/15 05:56:23;;;;;;;2.50;2.30;;;;;;;;;;5033068;28;20274;-85
2022/11/15 05:58:50;;;;;;;2.25;2.00;;;;;;;;;;5034084;28;20587;-85
2022/11/15 06:01:19;;;;;;;2.05;1.88;;;;;;;;;;5034363;28;20304;-85
2022/11/15 06:03:47;;;;;;;3.95;2.40;;;;;;;;;;5034335;28;20282;-84
2022/11/15 06:06:14;;;;;;;2.42;2.22;;;;;;;;;;5033956;28;20202;-84
2022/11/15 06:08:42;;;;;;;3.00;2.72;;;;;;;;;;5034287;28;20293;-86
2022/11/15 06:11:09;;;;;;;2.55;2.35;;;;;;;;;;5034188;28;20319;-83
2022/11/15 06:13:37;;;;;;;2.70;2.50;;;;;;;;;;5034156;28;20280;-83
2022/11/15 06:16:05;;;;;;;2.63;2.38;;;;;;;;;;5034166;28;20337;-82
2022/11/15 06:18:35;;;;;;;2.53;2.33;;;;;;;;;;5033755;28;20333;-84
2022/11/15 06:21:03;;;;;;;2.40;2.20;;;;;;;;;;5034860;28;20257;-83
2022/11/15 06:23:34;;;;;;;3.78;3.47;;;;;;;;;;5034225;28;20226;-84
2022/11/15 06:26:03;;;;;;;2.45;2.35;;;;;;;;;;5034852;28;20273;-83
2022/11/15 06:28:31;;;;;;;2.85;2.25;;;;;;;;;;5035112;28;20225;-83
2022/11/15 06:31:04;;;;;;;3.28;3.00;;;;;;;;;;5034843;28;20317;-83
2022/11/15 06:33:31;;;;;;;4.57;4.25;;;;;;;;;;5034883;28;20269;-83
2022/11/15 06:36:03;;;;;;;4.90;3.35;;;;;;;;;;5034170;28;20580;-83
2022/11/15 06:38:30;;;;;;;5.05;3.05;;;;;;;;;;5033583;28;20711;-84
2022/11/15 06:41:03;;;;;;;2.67;2.47;;;;;;;;;;5031094;28;20258;-84
2022/11/15 06:43:31;;;;;;;5.22;3.28;;;;;;;;;;5014320;28;20229;-84
2022/11/15 06:46:00;;;;;;;3.80;2.58;;;;;;;;;;5014594;28;20302;-84
2022/11/15 06:48:27;;;;;;;2.38;2.17;;;;;;;;;;5013802;28;20722;-82
2022/11/15 06:50:55;;;;;;;3.63;2.72;;;;;;;;;;5016933;28;20319;-84
2022/11/15 06:53:24;;;;;;;2.60;2.40;;;;;;;;;;5019380;28;20266;-84
2022/11/15 06:55:52;;;;;;;2.75;2.55;;;;;;;;;;5018717;28;20684;-85
2022/11/15 06:58:19;;;;;;;3.38;2.80;;;;;;;;;;5018230;28;20865;-85
2022/11/15 07:00:47;;;;;;;3.08;2.80;;;;;;;;;;5016924;28;20305;-84
2022/11/15 07:03:14;;;;;;;3.22;2.70;;;;;;;;;;5017888;28;20682;-83
2022/11/15 07:05:42;;;;;;;2.90;2.55;;;;;;;;;;5037774;28;20297;-83
2022/11/15 07:08:09;;;;;;;2.67;2.47;;;;;;;;;;5037691;28;20194;-84
2022/11/15 07:10:38;;;;;;;2.90;2.45;;;;;;;;;;5039929;28;20305;-84
2022/11/15 07:13:06;;;;;;;3.05;2.67;;;;;;;;;;5087584;22;20308;-81
2022/11/15 07:15:33;;;;;;;2.50;2.30;;;;;;;;;;5080909;28;20228;-81
2022/11/15 07:18:02;;;;;;;5.35;2.83;;;;;;;;;;5079867;28;20650;-79
2022/11/15 07:20:29;;;;;;;4.07;2.70;;;;;;;;;;5080023;28;20704;-81
2022/11/15 07:23:02;;;;;;;3.53;2.35;;;;;;;;;;5080479;28;20367;-81
2022/11/15 07:25:29;;;;;;;3.53;2.80;;;;;;;;;;5080396;28;20217;-82
2022/11/15 07:27:58;;;;;;;2.78;2.58;;;;;;;;;;5079695;28;20280;-83
2022/11/15 07:30:27;;;;;;;2.53;2.33;;;;;;;;;;5080444;28;20284;-83
2022/11/15 07:32:55;;;;;;;3.30;2.70;;;;;;;;;;5081630;28;20272;-83
2022/11/15 07:35:23;;;;;;;2.33;2.13;;;;;;;;;;5080150;28;20342;-82
2022/11/15 07:37:58;;;;;;;3.15;2.35;;;;;;;;;;5081071;28;20262;-84
2022/11/15 07:40:26;;;;;;;3.58;2.85;;;;;;;;;;5080579;28;20689;-82
2022/11/15 07:42:53;;;;;;;3.35;2.53;;;;;;;;;;5061403;28;20588;-82
2022/11/15 07:45:22;;;;;;;5.03;3.13;;;;;;;;;;5060470;28;20316;-83
2022/11/15 07:47:50;;;;;;;4.13;2.28;;;;;;;;;;5060518;28;20290;-83
2022/11/15 07:50:18;;;;;;;2.13;1.98;;;;;;;;;;5061216;28;20668;-83
2022/11/15 07:52:46;;;;;;;3.17;2.40;;;;;;;;;;5060052;28;20201;-83
2022/11/15 07:55:14;;;;;;;3.15;2.55;;;;;;;;;;5060647;28;20290;-83
2022/11/15 07:57:41;;;;;;;2.45;2.30;;;;;;;;;;5060119;28;20197;-82
2022/11/15 08:00:10;;;;;;;3.95;2.50;;;;;;;;;;5079183;28;20241;-83
2022/11/15 08:02:39;;;;;;;2.30;2.10;;;;;;;;;;5079488;28;20276;-83
2022/11/15 08:05:08;;;;;;;2.50;2.30;;;;;;;;;;5080322;28;20251;-83
2022/11/15 08:07:37;;;;;;;2.28;2.08;;;;;;;;;;5080629;28;20236;-83
2022/11/15 08:10:07;;;;;;;2.60;2.30;;;;;;;;;;5080421;28;20269;-83
2022/11/15 08:12:35;;;;;;;2.75;1.95;;;;;;;;;;5064556;28;20221;-82
2022/11/15 08:15:02;;;;;;;2.10;2.00;;;;;;;;;;5060391;28;20733;-81
2022/11/15 08:17:32;;;;;;;4.38;2.13;;;;;;;;;;5059451;28;20292;-83
2022/11/15 08:20:03;;;;;;;2.38;1.80;;;;;;;;;;5059313;28;20249;-80
2022/11/15 08:22:30;;;;;;;1.80;1.70;;;;;;;;;;5060585;28;20575;-81
2022/11/15 08:24:58;;;;;;;4.20;2.20;;;;;;;;;;5060090;28;20312;-81
2022/11/15 08:27:25;;;;;;;2.42;2.22;;;;;;;;;;5059373;28;20235;-82
2022/11/15 08:29:53;;;;;;;3.28;2.28;;;;;;;;;;5059480;28;20281;-82
2022/11/15 08:32:20;;;;;;;3.28;2.38;;;;;;;;;;5057459;28;20208;-80
2022/11/15 08:34:48;;;;;;;4.40;2.22;;;;;;;;;;5062630;28;20280;-82
2022/11/15 08:37:16;;;;;;;2.33;2.08;;;;;;;;;;5068898;28;20335;-82
2022/11/15 08:39:44;;;;;;;3.03;2.55;;;;;;;;;;5064006;28;20256;-83
2022/11/15 08:42:12;;;;;;;5.45;3.40;;;;;;;;;;5056983;28;20269;-84
2022/11/15 08:44:40;;;;;;;2.63;2.42;;;;;;;;;;5056985;28;20225;-82
2022/11/15 08:47:09;;;;;;;2.85;2.05;;;;;;;;;;5054790;28;20733;-82
2022/11/15 08:49:36;;;;;;;2.58;2.38;;;;;;;;;;5053862;28;20222;-82
2022/11/15 08:52:04;;;;;;;3.67;2.75;;;;;;;;;;5053924;28;20212;-82
2022/11/15 08:54:32;;;;;;;3.33;2.17;;;;;;;;;;5054171;28;20582;-82
2022/11/15 08:57:00;;;;;;;2.42;2.20;;;;;;;;;;5053931;28;20205;-82
2022/11/15 08:59:27;;;;;;;3.20;2.90;;;;;;;;;;5054006;28;20312;-82
2022/11/15 09:01:55;;;;;;;2.60;2.40;;;;;;;;;;5055013;28;20588;-82
2022/11/15 09:04:22;;;;;;;3.67;3.10;;;;;;;;;;5054250;28;20737;-82
2022/11/15 09:06:50;;;;;;;2.80;2.25;;;;;;;;;;5053863;28;20288;-82
2022/11/15 09:09:17;;;;;;;2.40;2.13;;;;;;;;;;5053622;28;20248;-83
2022/11/15 09:11:46;;;;;;;2.63;2.30;;;;;;;;;;5053306;28;20300;-82
2022/11/15 09:14:14;;;;;;;2.60;2.40;;;;;;;;;;5053899;28;20292;-82
2022/11/15 09:16:42;;;;;;;2.63;2.42;;;;;;;;;;5053629;28;20197;-82
2022/11/15 09:19:09;;;;;;;2.50;2.30;;;;;;;;;;5053485;28;20358;-81
2022/11/15 09:21:37;;;;;;;2.80;2.20;;;;;;;;;;5053421;28;20201;-82
2022/11/15 09:24:05;;;;;;;3.05;2.78;;;;;;;;;;5055140;28;20227;-81
2022/11/15 09:26:32;;;;;;;3.72;3.05;;;;;;;;;;5054803;28;20308;-82
2022/11/15 09:29:02;;;;;;;3.35;3.05;;;;;;;;;;5054841;28;20324;-82
2022/11/15 09:31:30;;;;;;;2.30;2.10;;;;;;;;;;5055729;28;20724;-83
2022/11/15 09:33:57;;;;;;;2.15;1.95;;;;;;;;;;5055938;28;20271;-82
2022/11/15 09:36:25;;;;;;;2.30;1.90;;;;;;;;;;5055445;28;20288;-82
2022/11/15 09:38:52;;;;;;;2.08;1.88;;;;;;;;;;5053407;28;20225;-82
2022/11/15 09:41:35;;;;;;;2.85;2.65;;;;;;;;;;5053819;28;20697;-81
2022/11/15 09:44:20;;;;;;;4.60;2.72;;;;;;;;;;5054629;28;20251;-82
2022/11/15 09:46:56;;;;;;;2.78;2.28;;;;;;;;;;5053898;28;20283;-83
2022/11/15 09:49:24;;;;;;;3.47;2.53;;;;;;;;;;5053415;28;20225;-82
2022/11/15 09:51:54;;;;;;;2.20;2.00;;;;;;;;;;5053757;28;20198;-83
2022/11/15 09:54:31;;;;;;;2.65;2.45;;;;;;;;;;5054187;28;20296;-83
2022/11/15 09:57:06;;;;;;;3.13;2.83;;;;;;;;;;5053883;28;20256;-82
2022/11/15 10:00:03;;;;;;;2.08;1.85;;;;;;;;;;5053138;28;20378;-82
2022/11/15 10:02:50;;;;;;;3.85;2.00;;;;;;;;;;5051367;28;20209;-83
2022/11/15 10:05:21;;;;;;;2.22;2.03;;;;;;;;;;5053626;28;20222;-83
2022/11/15 10:07:56;;;;;;;3.00;2.42;;;;;;;;;;5053219;28;20204;-82
2022/11/15 10:10:30;;;;;;;1.88;1.77;;;;;;;;;;5053220;28;20311;-82
2022/11/15 10:12:58;;;;;;;1.92;1.83;;;;;;;;;;5052845;28;20303;-83
2022/11/15 10:15:27;;;;;;;1.80;1.70;;;;;;;;;;5052964;28;20295;-82
2022/11/15 10:18:09;;;;;;;2.83;2.58;;;;;;;;;;5052690;28;20205;-81
2022/11/15 10:20:50;;;;;;;2.97;2.50;;;;;;;;;;5053007;28;20217;-82
2022/11/15 10:23:20;;;;;;;2.70;2.40;;;;;;;;;;5063679;28;20203;-83
2022/11/15 10:25:47;;;;;;;4.30;2.30;;;;;;;;;;5072815;28;20220;-83
2022/11/15 10:28:22;;;;;;;2.40;2.20;;;;;;;;;;5072864;28;20743;-83
2022/11/15 10:30:53;;;;;;;2.42;2.22;;;;;;;;;;5073018;28;20343;-82
2022/11/15 10:33:30;;;;;;;2.75;2.55;;;;;;;;;;5073192;28;20296;-83
2022/11/15 10:36:23;;;;;;;2.90;2.70;;;;;;;;;;5072299;28;20207;-83
2022/11/15 10:38:58;;;;;;;3.05;2.10;;;;;;;;;;5072197;28;20232;-83
2022/11/15 10:41:37;;;;;;;4.07;2.10;;;;;;;;;;5072324;28;20719;-84
2022/11/15 10:44:26;;;;;;;1.90;1.80;;;;;;;;;;5074898;28;20204;-83
2022/11/15 10:47:27;;;;;;;2.47;2.28;;;;;;;;;;5076628;28;20319;-84
2022/11/15 10:50:01;;;;;;;2.45;1.92;;;;;;;;;;5042478;28;20222;-84
2022/11/15 10:52:29;;;;;;;2.33;2.13;;;;;;;;;;5075703;28;20205;-84
2022/11/15 10:55:02;;;;;;;1.90;1.80;;;;;;;;;;5075599;28;20288;-84
2022/11/15 10:57:33;;;;;;;1.88;1.60;;;;;;;;;;5075738;28;20208;-83
2022/11/15 11:00:05;;;;;;;2.33;2.17;;;;;;;;;;5076060;28;20316;-85
2022/11/15 11:02:37;;;;;;;1.80;1.70;;;;;;;;;;5075586;28;20291;-84
2022/11/15 11:05:08;;;;;;;3.58;2.08;;;;;;;;;;5075874;28;20204;-83
2022/11/15 11:07:37;;;;;;;1.90;1.80;;;;;;;;;;5075820;28;20304;-83
2022/11/15 11:10:20;;;;;;;2.30;2.00;;;;;;;;;;5075932;28;20232;-83
2022/11/15 11:12:48;;;;;;;1.70;1.60;;;;;;;;;;5057734;28;20224;-83
2022/11/15 11:15:18;;;;;;;2.67;1.88;;;;;;;;;;5055865;28;20219;-83
2022/11/15 11:17:59;;;;;;;1.98;1.80;;;;;;;;;;5056460;28;20197;-82
2022/11/15 11:20:31;;;;;;;2.15;1.45;;;;;;;;;;5058055;28;20228;-83
2022/11/15 11:23:20;;;;;;;1.70;1.60;;;;;;;;;;5055848;28;20202;-83
2022/11/15 11:26:09;;;;;;;1.60;1.50;;;;;;;;;;5055294;28;20645;-83
2022/11/15 11:28:43;;;;;;;1.35;1.25;;;;;;;;;;5055403;28;20221;-82
2022/11/15 11:31:25;;;;;;;1.50;1.40;;;;;;;;;;5054940;28;20206;-83
2022/11/15 11:34:04;;;;;;;1.30;1.30;;;;;;;;;;5057230;28;20292;-82
2022/11/15 11:36:40;;;;;;;1.33;1.23;;;;;;;;;;5057583;28;20683;-82
2022/11/15 11:39:22;;;;;;;1.80;1.70;;;;;;;;;;5057614;28;20308;-83
2022/11/15 11:42:01;;;;;;;1.25;1.25;;;;;;;;;;5058795;28;20243;-83
2022/11/15 11:44:39;;;;;;;1.77;1.67;;;;;;;;;;5062338;28;20292;-83
2022/11/15 11:47:12;;;;;;;2.45;1.55;;;;;;;;;;5059720;28;20245;-83
2022/11/15 11:49:47;;;;;;;1.90;1.80;;;;;;;;;;5057860;28;20217;-83
2022/11/15 11:52:20;;;;;;;1.50;1.38;;;;;;;;;;5058061;28;20193;-83
2022/11/15 11:54:59;;;;;;;1.15;1.15;;;;;;;;;;5056695;28;20198;-82
2022/11/15 11:57:39;;;;;;;1.63;1.52;;;;;;;;;;5059882;28;20295;-82
2022/11/15 12:00:18;;;;;;;1.77;1.67;;;;;;;;;;5065256;28;20244;-83
2022/11/15 12:02:50;;;;;;;1.70;1.60;;;;;;;;;;5066167;28;20297;-82
2022/11/15 12:05:27;;;;;;;2.17;2.00;;;;;;;;;;5067779;28;20234;-82
2022/11/15 12:07:59;;;;;;;1.48;1.38;;;;;;;;;;5065866;28;20221;-84
2022/11/15 12:10:31;;;;;;;1.88;1.67;;;;;;;;;;5062016;28;20285;-82
2022/11/15 12:13:05;;;;;;;1.77;1.40;;;;;;;;;;5061997;28;20300;-84
2022/11/15 12:15:36;;;;;;;3.78;1.90;;;;;;;;;;5061665;28;20198;-82
2022/11/15 12:18:05;;;;;;;21.70;2.40;;;;;;;;;;5060532;28;20309;-82
2022/11/15 12:20:36;;;;;;;1.77;1.60;;;;;;;;;;5060281;28;20222;-83
2022/11/15 12:23:09;;;;;;;1.40;1.30;;;;;;;;;;5059313;28;20359;-83
2022/11/15 12:25:46;;;;;;;2.47;1.50;;;;;;;;;;5059475;28;20206;-83
2022/11/15 12:28:18;;;;;;;1.83;1.70;;;;;;;;;;5059152;28;20334;-82
2022/11/15 12:30:50;;;;;;;1.70;1.60;;;;;;;;;;5058088;28;20244;-83
2022/11/15 12:33:41;;;;;;;1.52;1.42;;;;;;;;;;5058148;28;20232;-83
2022/11/15 12:36:30;;;;;;;1.52;1.42;;;;;;;;;;5057900;28;20216;-83
2022/11/15 12:39:00;;;;;;;1.67;1.27;;;;;;;;;;5058020;28;20257;-83
2022/11/15 12:41:29;;;;;;;1.35;1.25;;;;;;;;;;5058236;28;20686;-83
2022/11/15 12:43:57;;;;;;;1.40;1.30;;;;;;;;;;5056763;28;20201;-83
2022/11/15 12:47:04;;;;;;;1.70;1.60;;;;;;;;;;5056322;28;20292;-82
2022/11/15 12:49:46;;;;;;;1.50;1.40;;;;;;;;;;5056642;28;20224;-84
2022/11/15 12:52:17;;;;;;;1.70;1.60;;;;;;;;;;5056087;28;20284;-83
2022/11/15 12:55:05;;;;;;;2.38;1.35;;;;;;;;;;5055055;28;20202;-83
2022/11/15 12:57:41;;;;;;;2.75;1.52;;;;;;;;;;5054974;28;20301;-83
2022/11/15 13:00:39;;;;;;;1.40;1.30;;;;;;;;;;5054890;28;20701;-83
2022/11/15 13:03:53;;;;;;;1.40;1.30;;;;;;;;;;5055767;28;20673;-83
2022/11/15 13:06:41;;;;;;;1.58;1.48;;;;;;;;;;4972203;28;20370;-83
2022/11/15 13:09:59;;;;;;;1.30;1.20;;;;;;;;;;5055325;28;20313;-83
2022/11/15 13:12:54;;;;;;;0.93;0.93;;;;;;;;;;5059128;28;20286;-84
2022/11/15 13:15:55;;;;;;;1.25;1.25;;;;;;;;;;5055687;28;20316;-84
2022/11/15 13:18:38;;;;;;;1.30;1.20;;;;;;;;;;5056011;28;20204;-84
2022/11/15 13:24:11;;;;;;;1.30;1.20;;;;;;;;;;5053190;28;20743;-85
2022/11/15 13:26:40;;;;;;;1.00;1.00;;;;;;;;;;5052839;28;20304;-84
2022/11/15 13:29:17;;;;;;;1.80;1.70;;;;;;;;;;5053137;28;20704;-83
2022/11/15 13:31:46;;;;;;;2.85;1.02;;;;;;;;;;5059280;28;20679;-84
2022/11/15 13:34:32;;;;;;;1.45;1.23;;;;;;;;;;5074206;28;20207;-84
2022/11/15 13:37:00;;;;;;;1.33;1.23;;;;;;;;;;5076895;28;20284;-84
2022/11/15 13:39:32;;;;;;;1.40;1.30;;;;;;;;;;5078130;28;20221;-83
2022/11/15 13:42:00;;;;;;;1.33;1.23;;;;;;;;;;5065638;28;20228;-83
2022/11/15 13:44:30;;;;;;;2.53;1.30;;;;;;;;;;5057791;28;20198;-84
2022/11/15 13:47:08;;;;;;;1.38;1.27;;;;;;;;;;5056774;28;20681;-84
2022/11/15 13:49:37;;;;;;;2.58;1.80;;;;;;;;;;5056171;28;20229;-84
2022/11/15 13:52:07;;;;;;;1.85;1.45;;;;;;;;;;5056741;28;20251;-84
2022/11/15 13:54:39;;;;;;;1.60;1.42;;;;;;;;;;5056534;28;20240;-83
2022/11/15 13:57:11;;;;;;;1.48;1.38;;;;;;;;;;5054806;28;20692;-84
2022/11/15 13:59:47;;;;;;;1.50;1.40;;;;;;;;;;5053807;28;20304;-84
2022/11/15 14:02:16;;;;;;;1.40;1.30;;;;;;;;;;5054764;28;20197;-83
2022/11/15 14:04:52;;;;;;;1.60;1.50;;;;;;;;;;5053599;28;20217;-82
2022/11/15 14:07:22;;;;;;;1.65;1.23;;;;;;;;;;5053681;28;20313;-83
2022/11/15 14:09:50;;;;;;;1.20;1.10;;;;;;;;;;5053832;28;20249;-83
2022/11/15 14:12:31;;;;;;;1.17;1.17;;;;;;;;;;5053940;28;20220;-84
2022/11/15 14:15:01;;;;;;;1.60;1.48;;;;;;;;;;5054905;28;20300;-83
2022/11/15 14:17:38;;;;;;;1.30;1.20;;;;;;;;;;5055115;28;20229;-83
2022/11/15 14:23:05;;;;;;;1.02;1.02;;;;;;;;;;5113692;27;20623;-85
2022/11/15 14:25:33;;;;;;;1.50;1.40;;;;;;;;;;5112769;28;20296;-85
2022/11/15 14:28:32;;;;;;;2.08;1.20;;;;;;;;;;5111912;28;20209;-84
2022/11/15 14:31:02;;;;;;;1.73;1.48;;;;;;;;;;5091807;28;20577;-85
2022/11/15 14:33:32;;;;;;;1.83;1.65;;;;;;;;;;5092544;28;20227;-85
2022/11/15 14:36:05;;;;;;;1.17;1.00;;;;;;;;;;5091630;28;20271;-85
2022/11/15 14:38:34;;;;;;;1.27;1.20;;;;;;;;;;5091839;28;20204;-85
2022/11/15 14:41:01;;;;;;;1.30;1.20;;;;;;;;;;5094993;28;20774;-85
2022/11/15 14:43:29;;;;;;;1.80;1.13;;;;;;;;;;5111258;28;20341;-86
2022/11/15 14:45:57;;;;;;;1.17;1.17;;;;;;;;;;5110725;28;20199;-85
2022/11/15 14:48:24;;;;;;;1.63;1.35;;;;;;;;;;5110160;28;20204;-85
2022/11/15 14:50:52;;;;;;;1.35;1.25;;;;;;;;;;5110743;28;20675;-84
2022/11/15 14:53:20;;;;;;;5.25;2.00;;;;;;;;;;5109841;28;20245;-84
2022/11/15 14:55:49;;;;;;;2.40;1.38;;;;;;;;;;5110059;28;20344;-85
2022/11/15 14:58:17;;;;;;;0.98;0.98;;;;;;;;;;5109432;28;20290;-85
2022/11/15 15:00:44;;;;;;;1.58;1.20;;;;;;;;;;5109346;28;20330;-84
2022/11/15 15:03:12;;;;;;;1.65;1.40;;;;;;;;;;5109458;28;20314;-86
2022/11/15 15:05:42;;;;;;;1.58;1.48;;;;;;;;;;5109582;28;20200;-83
2022/11/15 15:08:11;;;;;;;1.55;1.45;;;;;;;;;;5093618;28;20201;-83
2022/11/15 15:10:41;;;;;;;1.50;1.40;;;;;;;;;;5089385;28;20221;-84
2022/11/15 15:13:18;;;;;;;1.27;1.23;;;;;;;;;;5109966;28;20287;-84
2022/11/15 15:15:46;;;;;;;1.45;1.35;;;;;;;;;;5110080;28;20747;-84
2022/11/15 15:18:13;;;;;;;1.20;1.10;;;;;;;;;;5109245;28;20279;-84
2022/11/15 15:20:43;;;;;;;1.40;1.30;;;;;;;;;;5110188;28;20236;-84
2022/11/15 15:23:17;;;;;;;1.30;1.20;;;;;;;;;;5110351;28;20227;-83
2022/11/15 15:25:46;;;;;;;1.50;1.40;;;;;;;;;;5110670;28;20196;-84
2022/11/15 15:28:15;;;;;;;2.15;1.20;;;;;;;;;;5110076;28;20205;-83